Flight Track Log - Related Links

Times and Time Zones

All times are in EDT time to prevent confusion due to time zone crossing. See the N775NC flight status page for this flight to view local times or setup timezone preferences in your user account.

Time Position Orientation Groundspeed Altitude Reporting Facility
EDT Latitude Longitude Course Direction KTS MPH feet Rate Location/Type
Tue 01:42:55 PM 34.9894 -82.2336 252° West 249 287 4,500  Level Atlanta Center
Tue 01:43:55 PM 34.9656 -82.3128 250° West 244 281 7,100 2,300 Climbing Atlanta Center
Tue 01:44:00 PM 34.7328 -82.5125 259° West  Level Estimated
Tue 01:44:55 PM 34.9394 -82.4019 250° West 257 296 9,100  Level Atlanta Center
Tue 01:45:00 PM 34.6919 -82.5857 261° West  Level Estimated
Tue 01:45:55 PM 34.9094 -82.5014 250° West 286 329 20,000  Level Atlanta Center
Tue 01:46:00 PM 34.7043 -82.6729 280° West  Level FlightAware Approximate
Tue 01:46:55 PM 34.8711 -82.6008 245° Southwest 317 365 13,800  Level Atlanta Center
Tue 01:47:00 PM 34.6617 -82.7446 252° West  Level Estimated
Tue 01:47:55 PM 34.8283 -82.7003 242° Southwest 328 377 15,900  Level Atlanta Center
Tue 01:48:55 PM 34.7983 -82.8222 253° West 338 389 18,400 2,000 Climbing Atlanta Center
Tue 01:49:55 PM 34.7556 -82.9289 244° Southwest 344 396 19,900 800 Climbing Atlanta Center
Tue 01:50:55 PM 34.6981 -83.0383 237° Southwest 370 426 20,000 50 Climbing Atlanta Center
Tue 01:51:55 PM 34.6508 -83.1347 239° Southwest 380 437 20,000  Level Atlanta Center
Tue 01:52:55 PM 34.5994 -83.2489 241° Southwest 386 444 20,000  Level Atlanta Center
Tue 01:53:55 PM 34.5250 -83.3531 229° Southwest 401 461 20,000  Level Atlanta Center
Tue 01:54:55 PM 34.4397 -83.4519 224° Southwest 418 481 20,000 -450 Level Atlanta Center
Tue 01:55:55 PM 34.3567 -83.5456 223° Southwest 423 487 19,100 -1,450 Descending Atlanta Center
Tue 01:56:55 PM 34.2736 -83.6342 221° Southwest 410 472 17,100 -1,950 Descending Atlanta Center
Tue 01:57:55 PM 34.1842 -83.7300 222° Southwest 399 459 15,200 -1,550 Descending Atlanta Center
Tue 01:58:55 PM 34.1072 -83.8156 223° Southwest 399 459 14,000 -800 Descending Atlanta Center
Tue 01:59:55 PM 34.0447 -83.9008 229° Southwest 362 417 13,600 -850 Descending Atlanta Center
Tue 02:00:55 PM 33.9925 -83.9736 229° Southwest 318 366 12,300 -750 Descending Atlanta Center
Tue 02:01:55 PM 33.9467 -84.0439 232° Southwest 289 333 12,100 -100 Descending Atlanta Center
Tue 02:02:55 PM 33.8964 -84.1064 226° Southwest 265 305 12,100  Level Atlanta Center
Tue 02:03:55 PM 33.8358 -84.1414 206° Southwest 256 295 12,100  Level Atlanta Center
Tue 02:04:55 PM 33.7836 -84.1914 219° Southwest 250 288 12,100  Level Atlanta Center
Tue 02:05:55 PM 33.7544 -84.2561 242° Southwest 240 276 12,100 -500 Level Atlanta Center
Tue 02:06:55 PM 33.7439 -84.3386 261° West 254 292 11,100 -1,324 Descending Atlanta Center
Tue 02:08:11 PM 33.7500 -84.4500 274° West 248 285 9,100 -1,437 Descending Atlanta TRACON
Tue 02:09:17 PM 33.7500 -84.5333 270° West 234 269 7,700 -1,333 Descending Atlanta TRACON
Tue 02:10:17 PM 33.7500 -84.6167 270° West 229 264 6,300 -1,263 Descending Atlanta TRACON
Tue 02:11:11 PM 33.7500 -84.6833 270° West 229 264 5,300 -632 Descending Atlanta TRACON
Tue 02:12:11 PM 33.7500 -84.7667 270° West 237 273 5,100 -105 Descending Atlanta TRACON
Tue 02:13:05 PM 33.7500 -84.8333 270° West 208 239 5,100  Level Atlanta TRACON
Tue 02:14:05 PM 33.7500 -84.9000 270° West 206 237 5,100  Level Atlanta TRACON
Tue 02:15:05 PM 33.7000 -84.9167 195° South 194 223 5,100  Level Atlanta TRACON
Tue 02:15:59 PM 33.6667 -84.8833 140° Southeast 189 217 5,100  Level Atlanta TRACON
Tue 02:16:59 PM 33.6500 -84.8333 112° Southeast 195 224 5,100  Level Atlanta TRACON
Tue 02:17:53 PM 33.6500 -84.7833 90° East 195 224 5,100  Level Atlanta TRACON
Tue 02:18:53 PM 33.6500 -84.7167 90° East 196 226 5,100 -350 Level Atlanta TRACON
Tue 02:19:53 PM 33.6500 -84.6500 90° East 197 227 4,400 -850 Descending Atlanta TRACON
Tue 02:20:53 PM 33.6500 -84.5833 90° East 184 212 3,400 -1,000 Descending Atlanta TRACON
Tue 02:21:53 PM 33.6500 -84.5167 90° East 188 216 2,400 -895 Descending Atlanta TRACON
Tue 02:22:47 PM 33.6500 -84.4833 90° East 139 160 1,700 -778 Descending Atlanta TRACON

Login

Don't have an account? Register now (free) for customized features, flight alerts, and more!